Time;durP1;ratioP1;P1;durP2;ratioP2;P2;SDS_P1;SDS_P2;PMS_P1;PMS_P2;Temp;Humidity;BMP_temperature;BMP_pressure;BME280_temperature;BME280_humidity;BME280_pressure;Samples;Min_cycle;Max_cycle;Signal;HPM_P1;HPM_P2
2021/01/31 00:07:08;;;;;;;58.2;39.5;;;;;;;-2.78;84.70117;97507.92;;;;
2021/01/31 00:17:02;;;;;;;55.9;34.9;;;;;;;-2.82;84.99902;97514.73;;;;
2021/01/31 00:27:00;;;;;;;53.4;37.3;;;;;;;-2.8;85.03516;97536.36;;;;
2021/01/31 00:36:57;;;;;;;55.9;38.4;;;;;;;-2.83;85.21387;97528.15;;;;
2021/01/31 00:46:55;;;;;;;61.2;40.4;;;;;;;-2.79;85.02637;97537.16;;;;
2021/01/31 00:56:52;;;;;;;43.7;31.8;;;;;;;-2.78;84.88672;97521.11;;;;
2021/01/31 01:06:50;;;;;;;57.4;35.1;;;;;;;-2.83;85.06152;97528.95;;;;
2021/01/31 01:16:48;;;;;;;56.4;39.6;;;;;;;-2.8;84.77148;97522.38;;;;
2021/01/31 01:26:45;;;;;;;50.9;38.4;;;;;;;-2.84;84.90625;97523.91;;;;
2021/01/31 01:36:43;;;;;;;53.5;32.8;;;;;;;-2.97;84.54395;97509.29;;;;
2021/01/31 01:46:40;;;;;;;44.7;34.2;;;;;;;-2.97;85.13086;97516.39;;;;
2021/01/31 01:56:37;;;;;;;48;31.7;;;;;;;-3.03;84.71484;97517.39;;;;
2021/01/31 02:06:35;;;;;;;40.9;29.5;;;;;;;-3.18;84.80566;97510.09;;;;
2021/01/31 02:16:32;;;;;;;47.8;31.5;;;;;;;-3.51;84.92285;97533.92;;;;
2021/01/31 02:26:29;;;;;;;42.1;29.2;;;;;;;-3.8;85.79199;97549.84;;;;
2021/01/31 02:36:27;;;;;;;37.1;25.6;;;;;;;-3.81;85.97559;97547.44;;;;
2021/01/31 02:46:24;;;;;;;44.4;29.2;;;;;;;-4.07;85.62891;97552.34;;;;
2021/01/31 02:56:21;;;;;;;36.9;25.6;;;;;;;-4.37;85.9043;97557.08;;;;
2021/01/31 03:06:19;;;;;;;39.1;26.8;;;;;;;-4.82;85.05273;97564.14;;;;
2021/01/31 03:16:18;;;;;;;39.8;25.1;;;;;;;-5.18;84.98242;97571.36;;;;
2021/01/31 03:26:19;;;;;;;43.2;29.4;;;;;;;-5.26;85.51758;97589.28;;;;
2021/01/31 03:36:10;;;;;;;46.8;27.8;;;;;;;-5.25;86.09375;97596.94;;;;
2021/01/31 03:46:07;;;;;;;40.6;24.9;;;;;;;-5.23;86.34863;97596.7;;;;
2021/01/31 03:56:04;;;;;;;38.9;23.4;;;;;;;-5.31;86.89551;97613.59;;;;
2021/01/31 04:06:01;;;;;;;45.4;26.5;;;;;;;-5.28;87.36719;97623.67;;;;
2021/01/31 04:15:58;;;;;;;34.2;25.5;;;;;;;-5.28;86.38086;97635.99;;;;
2021/01/31 04:25:56;;;;;;;34.7;20.2;;;;;;;-5.21;87.06934;97653.23;;;;
2021/01/31 04:35:53;;;;;;;34.6;20.7;;;;;;;-5.05;86.9707;97656.97;;;;
2021/01/31 04:45:50;;;;;;;37.1;22.9;;;;;;;-4.9;86.63086;97653.87;;;;
2021/01/31 04:55:47;;;;;;;32.5;18.1;;;;;;;-4.78;84.74609;97657.25;;;;
2021/01/31 05:05:44;;;;;;;30.4;17.7;;;;;;;-4.8;84.05859;97670.64;;;;
2021/01/31 05:15:41;;;;;;;27;14.2;;;;;;;-4.89;83.50781;97681.72;;;;
2021/01/31 05:25:38;;;;;;;23.1;13.1;;;;;;;-5.03;82.31738;97685.65;;;;
2021/01/31 05:35:36;;;;;;;27.7;14.2;;;;;;;-5.27;81.09961;97698.77;;;;
2021/01/31 05:45:33;;;;;;;23.6;14.6;;;;;;;-5.75;81.69043;97706.02;;;;
2021/01/31 05:55:30;;;;;;;17.5;13.4;;;;;;;-6.12;81.45703;97735.03;;;;
2021/01/31 06:05:28;;;;;;;19.8;11.5;;;;;;;-6.45;81.0459;97750.35;;;;
2021/01/31 06:15:24;;;;;;;17.4;11.4;;;;;;;-6.78;81.25488;97766.45;;;;
2021/01/31 06:25:22;;;;;;;15.1;8.2;;;;;;;-6.89;80.96191;97764.55;;;;
2021/01/31 06:35:18;;;;;;;15.8;12;;;;;;;-7.01;81.92188;97779.34;;;;
2021/01/31 06:45:26;;;;;;;42.1;28.7;;;;;;;-7.09;82.94336;97784.88;;;;
2021/01/31 06:55:45;;;;;;;26;15.8;;;;;;;-6.97;83.50586;97795.43;;;;
2021/01/31 07:05:09;;;;;;;23.3;13.1;;;;;;;-6.87;83.59277;97799.16;;;;
2021/01/31 07:15:06;;;;;;;24.6;16.2;;;;;;;-6.7;83.37793;97799.43;;;;
2021/01/31 07:25:03;;;;;;;33.7;16.3;;;;;;;-6.39;83.70996;97803.73;;;;
2021/01/31 07:34:59;;;;;;;21.9;15.5;;;;;;;-5.79;84.37012;97807.98;;;;
2021/01/31 07:44:57;;;;;;;33.1;18.6;;;;;;;-5.19;81.23633;97816.62;;;;
2021/01/31 07:54:54;;;;;;;57.2;41.6;;;;;;;-4.79;79.34473;97823.87;;;;
2021/01/31 08:04:51;;;;;;;53.8;30.6;;;;;;;-4.75;77.80664;97830.24;;;;
2021/01/31 08:14:48;;;;;;;60.1;39;;;;;;;-4.85;78.00684;97832.64;;;;
2021/01/31 08:24:45;;;;;;;37.1;25.7;;;;;;;-4.96;77.39746;97822.94;;;;
2021/01/31 08:34:43;;;;;;;33.4;20.7;;;;;;;-5.02;77.05078;97840.39;;;;
2021/01/31 08:44:39;;;;;;;30.8;20.3;;;;;;;-4.99;76.09863;97836.5;;;;
2021/01/31 08:54:37;;;;;;;23.3;17.4;;;;;;;-4.76;75.53027;97844.44;;;;
2021/01/31 09:04:34;;;;;;;25.1;14.8;;;;;;;-4.6;74.37207;97841.11;;;;
2021/01/31 09:14:31;;;;;;;36.6;22.9;;;;;;;-4.45;74.56055;97835.4;;;;
2021/01/31 09:24:28;;;;;;;39.8;27.3;;;;;;;-4.15;74.2666;97847.37;;;;
2021/01/31 09:34:25;;;;;;;39.3;29.8;;;;;;;-4.11;73.00781;97842.44;;;;
2021/01/31 09:44:23;;;;;;;41.2;27;;;;;;;-3.76;73.64648;97835.26;;;;
2021/01/31 09:54:20;;;;;;;37;26.5;;;;;;;-3.23;71.37598;97829.62;;;;
2021/01/31 10:04:21;;;;;;;22.8;13.9;;;;;;;-3.08;66.27734;97835.16;;;;
2021/01/31 10:14:20;;;;;;;19.6;11.3;;;;;;;-2.88;64.11426;97845.22;;;;
2021/01/31 10:24:24;;;;;;;18.2;13.5;;;;;;;-3.32;62.5459;97836.33;;;;
2021/01/31 10:34:10;;;;;;;20.2;13.9;;;;;;;-2.92;61.48535;97838.86;;;;
2021/01/31 10:44:07;;;;;;;16.1;10;;;;;;;-2.88;62.02832;97845.22;;;;
2021/01/31 10:54:04;;;;;;;17.1;9;;;;;;;-2.38;61.73926;97842.56;;;;
2021/01/31 11:04:02;;;;;;;19.3;14.8;;;;;;;-2.24;61.34082;97848.29;;;;
2021/01/31 11:13:59;;;;;;;14.9;9.2;;;;;;;-2.1;59.58984;97849.54;;;;
2021/01/31 11:23:57;;;;;;;12.7;9;;;;;;;-2.16;59.24023;97840.77;;;;
2021/01/31 11:33:55;;;;;;;20;14.7;;;;;;;-2.15;59.39551;97844.98;;;;
2021/01/31 11:43:52;;;;;;;22.2;12;;;;;;;-2.74;60.94922;97835.19;;;;
2021/01/31 11:53:49;;;;;;;24.2;19.3;;;;;;;-2.16;60.81445;97832.84;;;;
2021/01/31 12:03:47;;;;;;;15.5;10.6;;;;;;;-1.62;61.02246;97814.45;;;;
2021/01/31 12:13:45;;;;;;;15.2;12;;;;;;;-1.39;57.93457;97824.77;;;;
2021/01/31 12:23:42;;;;;;;27.4;16.9;;;;;;;-1.62;57.69531;97812.62;;;;
2021/01/31 12:33:40;;;;;;;24.4;16.4;;;;;;;-1.64;57.4834;97806.8;;;;
2021/01/31 12:43:37;;;;;;;31.3;18.6;;;;;;;-1.47;56.69922;97811.18;;;;
2021/01/31 12:53:35;;;;;;;21;18.4;;;;;;;-1.52;57.46582;97794.22;;;;
2021/01/31 13:03:32;;;;;;;13.6;10.7;;;;;;;-1.2;56.8252;97791.63;;;;
2021/01/31 13:13:30;;;;;;;16.6;11.6;;;;;;;-1.61;56.80273;97790.45;;;;
2021/01/31 13:23:28;;;;;;;15.9;12;;;;;;;-1.82;56.37793;97793.91;;;;
2021/01/31 13:33:25;;;;;;;13.4;10.7;;;;;;;-1.91;56.76074;97791.96;;;;
2021/01/31 13:43:23;;;;;;;22.1;11.1;;;;;;;-2.02;57.05469;97803.44;;;;
2021/01/31 13:53:20;;;;;;;17.2;8.6;;;;;;;-2.58;57.95996;97802.71;;;;
2021/01/31 14:03:18;;;;;;;278.9;203.5;;;;;;;-2.85;58.69238;97799.15;;;;
2021/01/31 14:13:15;;;;;;;27.8;17.4;;;;;;;-3.07;59.62891;97799.87;;;;
2021/01/31 14:23:15;;;;;;;60.6;41;;;;;;;-3.22;59.62891;97798.8;;;;
2021/01/31 14:33:10;;;;;;;47.8;33.8;;;;;;;-3.31;59.47363;97793.14;;;;
2021/01/31 14:43:08;;;;;;;32.7;27.9;;;;;;;-3.52;59.88281;97783.3;;;;
2021/01/31 14:53:05;;;;;;;19.5;10.8;;;;;;;-3.78;61.12891;97782.03;;;;
2021/01/31 15:03:02;;;;;;;22.9;9.3;;;;;;;-4.08;62.03906;97771.73;;;;
2021/01/31 15:12:59;;;;;;;18.7;12.2;;;;;;;-4.4;63.18359;97775.81;;;;
2021/01/31 15:22:57;;;;;;;24.8;17.1;;;;;;;-4.81;64.19336;97766.27;;;;
2021/01/31 15:32:54;;;;;;;25.6;10.1;;;;;;;-5.28;65.52832;97765.46;;;;
2021/01/31 15:42:51;;;;;;;15;9.1;;;;;;;-5.6;67.44922;97758.89;;;;
2021/01/31 15:52:48;;;;;;;12.6;8.5;;;;;;;-5.84;68.30371;97762.47;;;;
2021/01/31 16:02:46;;;;;;;21.7;14.5;;;;;;;-5.99;69.52051;97770.77;;;;
2021/01/31 16:12:42;;;;;;;26.6;13.9;;;;;;;-6.05;70.86719;97770.84;;;;
2021/01/31 16:22:39;;;;;;;28.7;18.4;;;;;;;-6.24;71.56348;97772.69;;;;
2021/01/31 16:32:36;;;;;;;27.2;18.2;;;;;;;-6.38;72.14844;97760.75;;;;
2021/01/31 16:42:33;;;;;;;43.3;25.9;;;;;;;-6.46;73.27441;97769.74;;;;
2021/01/31 16:52:30;;;;;;;48.5;28.3;;;;;;;-6.54;74.1709;97763.98;;;;
2021/01/31 17:02:28;;;;;;;60.7;40;;;;;;;-6.64;75.04102;97764.49;;;;
2021/01/31 17:12:24;;;;;;;57.9;32.3;;;;;;;-6.74;74.93652;97766.82;;;;
2021/01/31 17:22:21;;;;;;;56.1;34.7;;;;;;;-6.93;74.94629;97759.95;;;;
2021/01/31 17:32:18;;;;;;;60.7;36.6;;;;;;;-7.08;75.32227;97762.92;;;;
2021/01/31 17:42:16;;;;;;;55.1;32.6;;;;;;;-7.25;75.72461;97773.12;;;;
2021/01/31 17:52:12;;;;;;;63.9;32.2;;;;;;;-7.47;75.38086;97761.44;;;;
2021/01/31 18:02:09;;;;;;;76.3;38.7;;;;;;;-7.74;75.78711;97760.8;;;;
2021/01/31 18:12:05;;;;;;;58.9;31.6;;;;;;;-7.98;76.27051;97755.55;;;;
2021/01/31 18:22:02;;;;;;;67.5;37.6;;;;;;;-8.19;76.94629;97761.9;;;;
2021/01/31 18:31:59;;;;;;;55.6;32.3;;;;;;;-8.37;77.5498;97757.38;;;;
2021/01/31 18:41:56;;;;;;;55.5;33.8;;;;;;;-8.54;78.3584;97747.61;;;;
2021/01/31 18:51:53;;;;;;;59.8;31.5;;;;;;;-8.62;79.08887;97738.19;;;;
2021/01/31 19:01:50;;;;;;;65.5;32.4;;;;;;;-8.63;79.62305;97735.77;;;;
2021/01/31 19:11:46;;;;;;;81.1;37.4;;;;;;;-8.73;80.88672;97738.82;;;;
2021/01/31 19:21:43;;;;;;;64.2;37.3;;;;;;;-8.87;80.08398;97739.87;;;;
2021/01/31 19:31:41;;;;;;;58.6;30.8;;;;;;;-8.94;79.91113;97732.06;;;;
2021/01/31 19:41:36;;;;;;;62.2;34.4;;;;;;;-8.97;79.95801;97716;;;;
2021/01/31 19:51:33;;;;;;;51.9;29.1;;;;;;;-9.15;79.92188;97705.4;;;;
2021/01/31 20:01:30;;;;;;;89.8;43;;;;;;;-9.21;79.60156;97694.79;;;;
2021/01/31 20:11:26;;;;;;;95.1;42.4;;;;;;;-9.28;79.98438;97698.41;;;;
2021/01/31 20:21:23;;;;;;;44.2;30.9;;;;;;;-9.36;79.99219;97691.59;;;;
2021/01/31 20:31:19;;;;;;;62.7;31.2;;;;;;;-9.46;80.05762;97687.8;;;;
2021/01/31 20:41:16;;;;;;;46.7;33.6;;;;;;;-9.55;81.82422;97687.22;;;;
2021/01/31 20:51:16;;;;;;;59.2;36.5;;;;;;;-9.59;80.8916;97674.78;;;;
2021/01/31 21:01:09;;;;;;;54.9;32.6;;;;;;;-9.7;81.62402;97674.39;;;;
2021/01/31 21:11:06;;;;;;;67.8;40.1;;;;;;;-9.76;82.3291;97679.61;;;;
2021/01/31 21:21:02;;;;;;;69.2;38.1;;;;;;;-9.82;81.80371;97670;;;;
2021/01/31 21:30:59;;;;;;;66.9;37.6;;;;;;;-9.91;81.07715;97679.8;;;;
2021/01/31 21:40:56;;;;;;;99.1;51.2;;;;;;;-9.94;80.97559;97688.02;;;;
2021/01/31 21:50:52;;;;;;;89.7;49.1;;;;;;;-10.02;81.22656;97695.22;;;;
2021/01/31 22:00:49;;;;;;;96;46.8;;;;;;;-10.04;80.5791;97684.2;;;;
2021/01/31 22:10:45;;;;;;;141.3;62.9;;;;;;;-10.11;80.15723;97668.58;;;;
2021/01/31 22:20:42;;;;;;;102.8;59.7;;;;;;;-10.24;80.47656;97674.58;;;;
2021/01/31 22:30:38;;;;;;;91.3;50.6;;;;;;;-10.36;80.88379;97668.37;;;;
2021/01/31 22:40:35;;;;;;;96.6;50;;;;;;;-10.45;81.64746;97658.34;;;;
2021/01/31 22:50:32;;;;;;;109.1;49.7;;;;;;;-10.5;81.50977;97661.53;;;;
2021/01/31 23:00:28;;;;;;;83;47.3;;;;;;;-10.47;80.53906;97650.72;;;;
2021/01/31 23:10:26;;;;;;;121.7;57.8;;;;;;;-10.6;80.35254;97652.48;;;;
2021/01/31 23:20:21;;;;;;;181;84.4;;;;;;;-10.86;82.16602;97650.59;;;;
2021/01/31 23:30:20;;;;;;;138.6;68.6;;;;;;;-10.88;80.77246;97637.8;;;;
2021/01/31 23:40:17;;;;;;;107.6;60.2;;;;;;;-10.94;80.70605;97628.19;;;;
2021/01/31 23:50:11;;;;;;;105.7;51.8;;;;;;;-11.13;81.57813;97622.88;;;;
